createdAt,value
2022-09-06T00:00:28.574Z,14.40
2022-09-06T00:02:56.525Z,14.30
2022-09-06T00:05:24.588Z,14.30
2022-09-06T00:07:52.424Z,14.20
2022-09-06T00:10:21.718Z,14.20
2022-09-06T00:12:50.515Z,14.20
2022-09-06T00:15:18.687Z,14.20
2022-09-06T00:17:46.542Z,14.30
2022-09-06T00:20:14.388Z,14.30
2022-09-06T00:22:42.307Z,14.20
2022-09-06T00:25:11.384Z,14.20
2022-09-06T00:27:40.550Z,14.20
2022-09-06T00:30:09.799Z,14.20
2022-09-06T00:32:37.610Z,14.20
2022-09-06T00:35:06.901Z,14.20
2022-09-06T00:37:34.729Z,14.30
2022-09-06T00:40:02.754Z,14.30
2022-09-06T00:42:30.715Z,14.30
2022-09-06T00:45:00.593Z,14.20
2022-09-06T00:47:29.666Z,14.20
2022-09-06T00:49:59.991Z,14.20
2022-09-06T00:52:28.721Z,14.20
2022-09-06T00:54:57.165Z,14.10
2022-09-06T00:57:27.103Z,14.20
2022-09-06T00:59:56.591Z,14.20
2022-09-06T01:02:25.844Z,14.20
2022-09-06T01:04:54.097Z,14.20
2022-09-06T01:07:35.032Z,14.20
2022-09-06T01:10:24.929Z,14.10
2022-09-06T01:13:04.968Z,14.10
2022-09-06T01:15:41.557Z,14.10
2022-09-06T01:18:22.743Z,14.10
2022-09-06T01:21:02.370Z,14.10
2022-09-06T01:24:21.133Z,14.20
2022-09-06T01:27:34.045Z,14.30
2022-09-06T01:30:06.143Z,14.50
2022-09-06T01:32:39.281Z,14.60
2022-09-06T01:35:14.521Z,14.50
2022-09-06T01:37:43.476Z,14.40
2022-09-06T01:40:11.344Z,14.30
2022-09-06T01:42:40.901Z,14.10
2022-09-06T01:45:12.903Z,14.00
2022-09-06T01:47:49.492Z,14.00
2022-09-06T01:50:38.159Z,13.90
2022-09-06T01:53:17.369Z,13.90
2022-09-06T01:55:51.337Z,13.80
2022-09-06T01:58:39.526Z,13.90
2022-09-06T02:01:19.076Z,13.90
2022-09-06T02:03:55.191Z,13.90
2022-09-06T02:06:28.058Z,13.90
2022-09-06T02:09:02.855Z,14.00
2022-09-06T02:11:39.812Z,13.90
2022-09-06T02:14:12.134Z,14.00
2022-09-06T02:16:45.095Z,13.90
2022-09-06T02:19:16.631Z,14.00
2022-09-06T02:21:47.621Z,14.00
2022-09-06T02:24:20.808Z,14.00
2022-09-06T02:26:49.443Z,13.90
2022-09-06T02:29:18.586Z,14.00
2022-09-06T02:31:51.673Z,14.00
2022-09-06T02:34:21.134Z,14.00
2022-09-06T02:36:49.687Z,14.00
2022-09-06T02:39:17.718Z,14.10
2022-09-06T02:41:48.169Z,14.20
2022-09-06T02:44:16.059Z,14.20
2022-09-06T02:46:43.860Z,14.20
2022-09-06T02:49:14.124Z,14.10
2022-09-06T02:51:42.076Z,14.10
2022-09-06T02:54:09.925Z,14.20
2022-09-06T02:56:38.116Z,14.30
2022-09-06T02:59:05.964Z,14.40
2022-09-06T03:01:35.249Z,14.30
2022-09-06T03:04:03.618Z,14.20
2022-09-06T03:06:32.971Z,14.20
2022-09-06T03:09:00.966Z,14.20
2022-09-06T03:11:29.036Z,14.10
2022-09-06T03:13:56.899Z,14.10
2022-09-06T03:16:24.861Z,14.10
2022-09-06T03:18:52.706Z,14.00
2022-09-06T03:21:20.676Z,14.00
2022-09-06T03:23:50.937Z,14.00
2022-09-06T03:26:18.769Z,14.00
2022-09-06T03:28:46.600Z,14.00
2022-09-06T03:31:14.469Z,13.90
2022-09-06T03:33:42.393Z,14.00
2022-09-06T03:36:10.256Z,14.40
2022-09-06T03:38:38.072Z,14.50
2022-09-06T03:41:07.224Z,14.50
2022-09-06T03:43:35.173Z,14.40
2022-09-06T03:46:03.500Z,14.30
2022-09-06T03:48:31.359Z,14.30
2022-09-06T03:50:59.923Z,14.30
2022-09-06T03:53:29.251Z,14.30
2022-09-06T03:55:58.655Z,14.20
2022-09-06T03:58:32.415Z,14.30
2022-09-06T04:01:05.574Z,14.40
2022-09-06T04:03:33.978Z,14.40
2022-09-06T04:06:02.475Z,14.40
2022-09-06T04:08:30.759Z,14.40
2022-09-06T04:10:59.515Z,14.50
2022-09-06T04:13:29.950Z,14.50
2022-09-06T04:15:58.269Z,14.50
2022-09-06T04:18:26.785Z,14.40
2022-09-06T04:20:56.225Z,14.50
2022-09-06T04:23:25.410Z,14.50
2022-09-06T04:25:55.275Z,14.50
2022-09-06T04:28:23.836Z,14.50
2022-09-06T04:30:55.333Z,14.50
2022-09-06T04:33:25.836Z,14.60
2022-09-06T04:35:54.064Z,14.60
2022-09-06T04:38:22.003Z,14.70
2022-09-06T04:40:49.922Z,14.70
2022-09-06T04:43:17.992Z,14.70
2022-09-06T04:45:46.373Z,14.70
2022-09-06T04:48:16.165Z,14.70
2022-09-06T04:50:44.104Z,14.60
2022-09-06T04:53:12.000Z,14.60
2022-09-06T04:55:40.086Z,14.60
2022-09-06T04:58:07.989Z,14.70
2022-09-06T05:00:38.576Z,14.50
2022-09-06T05:03:06.619Z,14.50
2022-09-06T05:05:35.803Z,14.70
2022-09-06T05:08:04.072Z,14.70
2022-09-06T05:10:31.971Z,14.70
2022-09-06T05:12:59.875Z,14.60
2022-09-06T05:15:27.825Z,14.60
2022-09-06T05:18:03.141Z,14.70
2022-09-06T05:20:30.982Z,14.80
2022-09-06T05:23:01.571Z,15.00
2022-09-06T05:25:29.523Z,15.00
2022-09-06T05:27:57.336Z,15.00
2022-09-06T05:30:25.146Z,15.00
2022-09-06T05:32:52.945Z,15.00
2022-09-06T05:35:20.785Z,15.00
2022-09-06T05:37:48.635Z,15.10
2022-09-06T05:40:18.007Z,15.30
2022-09-06T05:42:45.818Z,15.70
2022-09-06T05:45:13.647Z,15.90
2022-09-06T05:47:41.481Z,15.70
2022-09-06T05:50:10.154Z,15.70
2022-09-06T05:52:39.199Z,15.70
2022-09-06T05:55:07.811Z,16.00
2022-09-06T05:57:36.985Z,16.30
2022-09-06T06:00:05.878Z,16.70
2022-09-06T06:02:33.790Z,16.80
2022-09-06T06:05:02.126Z,17.20
2022-09-06T06:07:29.933Z,17.30
2022-09-06T06:09:57.752Z,17.40
2022-09-06T06:12:25.550Z,18.00
2022-09-06T06:14:54.719Z,18.70
2022-09-06T06:17:22.651Z,18.70
2022-09-06T06:19:50.463Z,18.80
2022-09-06T06:22:18.300Z,18.70
2022-09-06T06:24:46.139Z,18.80
2022-09-06T06:27:13.993Z,18.90
2022-09-06T06:29:41.827Z,19.40
2022-09-06T06:32:11.002Z,20.30
2022-09-06T06:34:38.864Z,20.70
2022-09-06T06:37:06.689Z,20.60
2022-09-06T06:39:34.574Z,20.90
2022-09-06T06:42:02.394Z,20.80
2022-09-06T06:44:30.229Z,20.50
2022-09-06T06:46:58.776Z,20.50
2022-09-06T06:49:28.399Z,20.70
2022-09-06T06:51:56.206Z,20.70
2022-09-06T06:54:24.030Z,20.90
2022-09-06T06:56:51.939Z,20.50
2022-09-06T06:59:20.536Z,20.40
2022-09-06T07:01:49.897Z,20.90
2022-09-06T07:04:17.839Z,21.30
2022-09-06T07:12:28.066Z,21.20
2022-09-06T07:14:55.878Z,21.10
2022-09-06T07:17:23.724Z,21.20
2022-09-06T07:22:41.315Z,20.90
2022-09-06T07:25:12.157Z,20.50
2022-09-06T07:27:48.694Z,20.40
2022-09-06T07:30:17.621Z,20.60
2022-09-06T07:32:45.485Z,20.80
2022-09-06T07:35:13.922Z,21.00
2022-09-06T07:37:43.154Z,21.20
2022-09-06T07:40:11.994Z,21.60
2022-09-06T07:42:39.893Z,22.00
2022-09-06T07:45:08.581Z,21.80
2022-09-06T07:53:16.636Z,22.50
2022-09-06T07:55:49.661Z,23.00
2022-09-06T07:58:17.502Z,23.60
2022-09-06T08:00:45.518Z,23.70
2022-09-06T08:03:13.469Z,24.60
2022-09-06T08:11:18.726Z,24.70
2022-09-06T08:13:49.902Z,24.40
2022-09-06T08:16:17.861Z,25.20
2022-09-06T08:18:45.708Z,24.90
2022-09-06T08:21:15.660Z,24.70
2022-09-06T08:23:47.390Z,24.60
2022-09-06T08:26:15.749Z,24.70
2022-09-06T08:28:43.682Z,25.10
2022-09-06T08:31:12.986Z,24.80
2022-09-06T08:33:41.951Z,25.00
2022-09-06T08:36:10.980Z,24.90
2022-09-06T08:38:38.892Z,25.10
2022-09-06T08:41:10.786Z,25.50
2022-09-06T08:43:39.765Z,25.90
2022-09-06T08:46:09.470Z,26.00
2022-09-06T08:48:40.009Z,25.80
2022-09-06T08:51:38.848Z,25.90
2022-09-06T08:54:13.369Z,26.10
2022-09-06T08:56:59.516Z,26.10
2022-09-06T08:59:27.617Z,25.70
2022-09-06T09:02:04.351Z,25.60
2022-09-06T09:04:34.300Z,25.40
2022-09-06T09:07:24.870Z,25.20
2022-09-06T09:09:55.177Z,25.30
2022-09-06T09:12:26.096Z,25.40
2022-09-06T09:14:58.589Z,25.20
2022-09-06T09:17:30.724Z,25.30
2022-09-06T09:19:58.519Z,25.40
2022-09-06T09:22:26.716Z,25.50
2022-09-06T09:24:58.947Z,25.50
2022-09-06T09:27:29.733Z,25.30
2022-09-06T09:32:51.360Z,25.30
2022-09-06T09:35:23.414Z,25.20
2022-09-06T09:38:07.768Z,25.10
2022-09-06T09:40:41.686Z,25.20
2022-09-06T09:43:17.751Z,25.20
2022-09-06T09:45:46.652Z,25.00
2022-09-06T09:48:20.752Z,24.90
2022-09-06T09:50:49.093Z,25.10
2022-09-06T09:53:19.444Z,25.00
2022-09-06T09:55:47.684Z,25.10
2022-09-06T09:58:32.219Z,25.20
2022-09-06T10:01:19.088Z,25.30
2022-09-06T10:09:31.824Z,24.40
2022-09-06T10:12:01.579Z,24.20
2022-09-06T10:14:34.019Z,24.20
2022-09-06T10:17:01.858Z,24.50
2022-09-06T10:19:40.789Z,24.40
2022-09-06T10:22:28.894Z,24.60
2022-09-06T10:25:29.367Z,24.40
2022-09-06T10:28:29.991Z,24.10
2022-09-06T10:31:18.854Z,23.90
2022-09-06T10:33:59.047Z,23.80
2022-09-06T10:36:32.833Z,23.80
2022-09-06T10:39:06.129Z,23.80
2022-09-06T10:41:48.899Z,23.70
2022-09-06T10:44:31.251Z,23.80
2022-09-06T10:47:11.292Z,23.60
2022-09-06T10:49:39.759Z,23.70
2022-09-06T10:52:09.649Z,23.80
2022-09-06T10:54:42.066Z,23.70
2022-09-06T11:00:11.861Z,24.00
2022-09-06T11:02:47.080Z,24.20
2022-09-06T11:11:07.121Z,25.10
2022-09-06T11:13:35.040Z,25.40
2022-09-06T11:16:07.962Z,25.40
2022-09-06T11:18:42.077Z,25.80
2022-09-06T11:21:43.184Z,25.90
2022-09-06T11:24:14.122Z,25.60
2022-09-06T11:26:45.231Z,25.90
2022-09-06T11:29:20.890Z,26.50
2022-09-06T11:34:54.214Z,26.70
2022-09-06T11:37:27.988Z,26.40
2022-09-06T11:40:26.746Z,26.10
2022-09-06T11:43:12.806Z,26.40
2022-09-06T11:45:45.677Z,25.80
2022-09-06T11:48:35.051Z,26.10
2022-09-06T11:51:07.611Z,26.60
2022-09-06T11:53:57.740Z,26.00
2022-09-06T11:56:30.965Z,26.10
2022-09-06T11:59:04.897Z,26.20
2022-09-06T12:01:38.943Z,25.90
2022-09-06T12:04:10.258Z,26.40
2022-09-06T12:06:41.832Z,26.50
2022-09-06T12:09:38.597Z,26.30
2022-09-06T12:12:07.101Z,26.50
2022-09-06T12:14:39.660Z,26.90
2022-09-06T12:17:31.087Z,26.90
2022-09-06T12:20:06.470Z,26.30
2022-09-06T12:23:05.964Z,26.40
2022-09-06T12:25:57.580Z,26.60
2022-09-06T12:28:34.697Z,26.50
2022-09-06T12:31:20.996Z,26.60
2022-09-06T12:33:49.138Z,26.50
2022-09-06T12:36:19.481Z,26.70
2022-09-06T12:38:59.105Z,26.70
2022-09-06T12:41:29.173Z,26.50
2022-09-06T12:43:59.271Z,26.30
2022-09-06T12:46:30.108Z,26.50
2022-09-06T12:49:02.960Z,27.00
2022-09-06T12:51:30.773Z,27.10
2022-09-06T12:54:01.891Z,26.90
2022-09-06T12:56:32.816Z,27.00
2022-09-06T12:59:15.248Z,27.10
2022-09-06T13:01:49.189Z,27.20
2022-09-06T13:04:34.103Z,27.40
2022-09-06T13:07:04.741Z,27.40
2022-09-06T13:09:34.930Z,27.30
2022-09-06T13:12:07.733Z,27.20
2022-09-06T13:14:36.572Z,27.10
2022-09-06T13:17:04.477Z,27.10
2022-09-06T13:19:35.569Z,27.00
2022-09-06T13:22:05.416Z,27.00
2022-09-06T13:24:47.252Z,26.90
2022-09-06T13:27:26.214Z,27.00
2022-09-06T13:29:59.110Z,27.20
2022-09-06T13:32:28.180Z,27.20
2022-09-06T13:34:57.825Z,27.10
2022-09-06T13:37:26.872Z,26.90
2022-09-06T13:39:57.570Z,27.00
2022-09-06T13:42:28.682Z,27.10
2022-09-06T13:45:01.413Z,27.30
2022-09-06T13:47:30.350Z,26.90
2022-09-06T13:49:58.184Z,27.00
2022-09-06T13:52:26.028Z,27.20
2022-09-06T13:54:55.680Z,26.80
2022-09-06T13:57:24.621Z,26.60
2022-09-06T13:59:52.756Z,26.50
2022-09-06T14:02:20.928Z,26.50
2022-09-06T14:04:50.167Z,26.50
2022-09-06T14:07:18.180Z,26.50
2022-09-06T14:09:47.413Z,26.20
2022-09-06T14:12:16.587Z,26.10
2022-09-06T14:14:45.355Z,26.20
2022-09-06T14:17:13.175Z,26.40
2022-09-06T14:19:41.400Z,26.20
2022-09-06T14:22:09.201Z,26.10
2022-09-06T14:24:36.995Z,25.70
2022-09-06T14:27:06.990Z,25.60
2022-09-06T14:29:36.724Z,25.50
2022-09-06T14:32:04.934Z,25.40
2022-09-06T14:34:32.785Z,25.60
2022-09-06T14:37:00.582Z,25.80
2022-09-06T14:39:28.566Z,25.80
2022-09-06T14:41:56.459Z,25.90
2022-09-06T14:44:24.365Z,25.90
2022-09-06T14:46:54.592Z,26.20
2022-09-06T14:49:22.621Z,26.10
2022-09-06T14:51:53.199Z,26.10
2022-09-06T14:54:24.161Z,25.90
2022-09-06T14:56:55.160Z,26.10
2022-09-06T14:59:22.979Z,26.50
2022-09-06T15:01:50.860Z,27.00
2022-09-06T15:04:20.142Z,27.00
2022-09-06T15:06:50.617Z,26.80
2022-09-06T15:09:19.145Z,26.90
2022-09-06T15:11:48.596Z,26.90
2022-09-06T15:14:18.146Z,27.20
2022-09-06T15:16:47.678Z,26.70
2022-09-06T15:19:16.762Z,26.20
2022-09-06T15:21:46.820Z,26.00
2022-09-06T15:24:15.131Z,25.60
2022-09-06T15:26:43.819Z,25.30
2022-09-06T15:29:12.668Z,25.20
2022-09-06T15:31:40.883Z,25.30
2022-09-06T15:34:09.763Z,25.10
2022-09-06T15:36:38.259Z,25.00
2022-09-06T15:39:07.545Z,25.00
2022-09-06T15:41:37.043Z,25.00
2022-09-06T15:44:09.451Z,25.10
2022-09-06T15:46:46.689Z,25.20
2022-09-06T15:49:17.221Z,25.30
2022-09-06T15:51:45.675Z,25.30
2022-09-06T15:54:16.147Z,25.20
2022-09-06T15:56:43.838Z,25.10
2022-09-06T15:59:12.716Z,25.10
2022-09-06T16:01:41.079Z,25.20
2022-09-06T16:04:08.956Z,25.00
2022-09-06T16:06:39.622Z,24.90
2022-09-06T16:09:09.789Z,24.80
2022-09-06T16:11:39.160Z,24.70
2022-09-06T16:14:08.957Z,24.40
2022-09-06T16:16:37.199Z,24.30
2022-09-06T16:19:05.325Z,24.10
2022-09-06T16:21:35.366Z,24.00
2022-09-06T16:24:04.931Z,23.90
2022-09-06T16:26:34.148Z,23.70
2022-09-06T16:29:04.733Z,23.60
2022-09-06T16:31:39.100Z,23.50
2022-09-06T16:34:07.813Z,23.60
2022-09-06T16:36:35.703Z,23.80
2022-09-06T16:39:03.832Z,23.90
2022-09-06T16:41:38.820Z,24.00
2022-09-06T16:44:08.390Z,24.10
2022-09-06T16:46:36.279Z,24.10
2022-09-06T16:49:04.510Z,23.90
2022-09-06T16:51:32.672Z,23.80
2022-09-06T16:54:01.535Z,23.70
2022-09-06T16:56:33.526Z,23.60
2022-09-06T16:59:03.258Z,23.50
2022-09-06T17:01:32.956Z,23.30
2022-09-06T17:04:02.178Z,23.20
2022-09-06T17:06:30.409Z,23.10
2022-09-06T17:08:59.195Z,22.90
2022-09-06T17:11:28.836Z,22.80
2022-09-06T17:13:57.515Z,22.70
2022-09-06T17:16:43.880Z,22.70
2022-09-06T17:19:13.906Z,22.60
2022-09-06T17:21:42.452Z,22.50
2022-09-06T17:24:10.632Z,22.40
2022-09-06T17:26:40.200Z,22.30
2022-09-06T17:29:09.052Z,22.20
2022-09-06T17:31:37.937Z,22.20
2022-09-06T17:34:07.625Z,22.10
2022-09-06T17:36:37.600Z,22.00
2022-09-06T17:39:07.687Z,21.80
2022-09-06T17:41:38.811Z,21.70
2022-09-06T17:44:07.707Z,21.60
2022-09-06T17:46:35.565Z,21.50
2022-09-06T17:49:05.312Z,21.40
2022-09-06T17:51:33.828Z,21.40
2022-09-06T17:54:03.287Z,21.30
2022-09-06T17:56:31.309Z,21.10
2022-09-06T17:59:01.671Z,20.90
2022-09-06T18:01:32.055Z,20.80
2022-09-06T18:04:00.787Z,20.80
2022-09-06T18:06:30.330Z,20.70
2022-09-06T18:09:00.973Z,20.70
2022-09-06T18:11:31.994Z,20.70
2022-09-06T18:14:01.307Z,20.60
2022-09-06T18:16:30.556Z,20.60
2022-09-06T18:19:00.377Z,20.40
2022-09-06T18:21:30.924Z,20.30
2022-09-06T18:23:59.631Z,20.20
2022-09-06T18:26:27.834Z,20.10
2022-09-06T18:28:57.177Z,20.10
2022-09-06T18:31:27.206Z,20.10
2022-09-06T18:33:58.040Z,20.00
2022-09-06T18:36:31.167Z,20.00
2022-09-06T18:39:02.664Z,19.90
2022-09-06T18:41:48.097Z,19.90
2022-09-06T18:44:17.925Z,19.90
2022-09-06T18:46:45.938Z,19.90
2022-09-06T18:49:15.445Z,20.00
2022-09-06T18:51:44.609Z,20.00
2022-09-06T18:54:13.170Z,20.00
2022-09-06T18:56:40.991Z,20.00
2022-09-06T18:59:10.746Z,19.90
2022-09-06T19:01:40.710Z,19.70
2022-09-06T19:04:08.998Z,19.70
2022-09-06T19:06:38.090Z,19.50
2022-09-06T19:09:08.426Z,19.50
2022-09-06T19:11:36.745Z,19.40
2022-09-06T19:14:05.631Z,19.30
2022-09-06T19:16:33.626Z,19.20
2022-09-06T19:19:05.886Z,19.20
2022-09-06T19:21:36.743Z,19.10
2022-09-06T19:24:10.289Z,19.10
2022-09-06T19:26:39.536Z,19.00
2022-09-06T19:29:09.856Z,19.00
2022-09-06T19:31:38.681Z,18.90
2022-09-06T19:34:08.453Z,18.90
2022-09-06T19:36:36.948Z,18.90
2022-09-06T19:39:07.278Z,18.90
2022-09-06T19:41:38.847Z,18.80
2022-09-06T19:44:08.652Z,18.60
2022-09-06T19:46:37.173Z,18.60
2022-09-06T19:49:08.044Z,18.60
2022-09-06T19:51:37.936Z,18.60
2022-09-06T19:54:06.491Z,18.50
2022-09-06T19:56:35.675Z,18.40
2022-09-06T19:59:06.076Z,18.30
2022-09-06T20:01:35.228Z,18.20
2022-09-06T20:04:05.198Z,18.20
2022-09-06T20:06:33.104Z,18.30
2022-09-06T20:09:03.531Z,18.50
2022-09-06T20:11:33.322Z,18.60
2022-09-06T20:14:01.603Z,18.70
2022-09-06T20:16:30.377Z,18.80
2022-09-06T20:18:59.877Z,18.80
2022-09-06T20:21:28.285Z,18.80
2022-09-06T20:23:58.087Z,18.70
2022-09-06T20:26:30.291Z,18.60
2022-09-06T20:28:59.801Z,18.60
2022-09-06T20:31:29.194Z,18.60
2022-09-06T20:33:58.986Z,18.60
2022-09-06T20:36:26.927Z,18.60
2022-09-06T20:38:55.259Z,18.60
2022-09-06T20:41:24.652Z,18.60
2022-09-06T20:43:55.113Z,18.50
2022-09-06T20:46:24.432Z,18.50
2022-09-06T20:48:52.782Z,18.50
2022-09-06T20:51:22.636Z,18.40
2022-09-06T20:53:53.807Z,18.50
2022-09-06T20:56:23.988Z,18.50
2022-09-06T20:58:55.303Z,18.40
2022-09-06T21:01:24.929Z,18.40
2022-09-06T21:03:54.296Z,18.40
2022-09-06T21:06:22.964Z,18.30
2022-09-06T21:08:51.503Z,18.30
2022-09-06T21:11:20.115Z,18.30
2022-09-06T21:13:50.623Z,18.30
2022-09-06T21:16:24.416Z,18.10
2022-09-06T21:18:53.129Z,17.90
2022-09-06T21:21:21.440Z,17.90
2022-09-06T21:23:50.152Z,17.80
2022-09-06T21:26:18.535Z,17.70
2022-09-06T21:28:47.765Z,17.70
2022-09-06T21:31:18.164Z,17.60
2022-09-06T21:33:49.002Z,17.60
2022-09-06T21:36:18.786Z,17.50
2022-09-06T21:38:48.912Z,17.70
2022-09-06T21:41:18.361Z,17.70
2022-09-06T21:43:46.931Z,17.70
2022-09-06T21:46:16.446Z,17.70
2022-09-06T21:48:46.005Z,17.90
2022-09-06T21:51:17.613Z,17.80
2022-09-06T21:53:47.149Z,17.70
2022-09-06T21:56:15.692Z,17.60
2022-09-06T21:58:44.755Z,17.70
2022-09-06T22:01:12.658Z,17.60
2022-09-06T22:03:40.587Z,17.60
2022-09-06T22:06:13.363Z,17.60
2022-09-06T22:08:43.872Z,17.50
2022-09-06T22:11:12.849Z,17.50
2022-09-06T22:13:41.933Z,17.40
2022-09-06T22:16:10.471Z,17.80
2022-09-06T22:18:38.917Z,17.80
2022-09-06T22:21:09.387Z,17.80
2022-09-06T22:23:37.527Z,17.80
2022-09-06T22:26:08.737Z,17.70
2022-09-06T22:28:37.757Z,17.70
2022-09-06T22:31:06.307Z,17.70
2022-09-06T22:33:34.868Z,17.70
2022-09-06T22:36:03.145Z,17.70
2022-09-06T22:38:31.927Z,18.60
2022-09-06T22:41:00.132Z,19.20
2022-09-06T22:43:29.333Z,19.40
2022-09-06T22:46:03.900Z,19.60
2022-09-06T22:48:31.858Z,19.70
2022-09-06T22:51:00.582Z,19.70
2022-09-06T22:53:29.025Z,19.70
2022-09-06T22:55:57.192Z,19.70
2022-09-06T22:58:26.865Z,19.70
2022-09-06T23:00:56.588Z,19.70
2022-09-06T23:03:24.557Z,19.70
2022-09-06T23:05:52.410Z,19.60
2022-09-06T23:08:20.310Z,19.70
2022-09-06T23:10:48.364Z,19.80
2022-09-06T23:13:17.444Z,19.90
2022-09-06T23:15:46.428Z,20.00
2022-09-06T23:18:16.165Z,20.10
2022-09-06T23:20:43.997Z,20.10
2022-09-06T23:23:11.843Z,19.70
2022-09-06T23:25:40.366Z,19.20
2022-09-06T23:28:08.231Z,18.80
2022-09-06T23:30:38.626Z,18.60
2022-09-06T23:33:06.473Z,18.50
2022-09-06T23:35:35.646Z,18.30
2022-09-06T23:38:03.490Z,18.20
2022-09-06T23:40:31.320Z,18.10
2022-09-06T23:42:59.131Z,18.10
2022-09-06T23:45:27.300Z,18.00
2022-09-06T23:47:55.142Z,18.00
2022-09-06T23:50:22.982Z,18.10
2022-09-06T23:52:52.167Z,18.20
2022-09-06T23:55:20.007Z,18.40
2022-09-06T23:57:47.886Z,18.40
